Terminal Aerodrome Forecast
Issued by NWS Upton, NY

Home | Current Version | Previous Version | Text Only | Print | Product List | Glossary On
Versions: 1 2 3 4 5 6 7 8 9 10 11 12 13 14 15 16 17 18 19 20 21 22 23 24 25 26 27 28 29 30 31 32 33 34
000
FTUS41 KOKX 291825 AAA
TAFEWR
TAF AMD
KEWR 291825Z 2918/3024 14010G16KT P6SM BKN070
     FM292000 14009KT P6SM VCSH OVC060
     FM292200 12007KT P6SM -SHRA OVC050
     FM300000 09005KT P6SM -SHRA OVC050
     FM300200 04005KT P6SM VCSH FEW020 OVC045
     FM300800 02006KT P6SM VCSH BKN050
     FM301200 04005KT P6SM FEW060 SCT250
     FM301600 09008KT P6SM FEW060 SCT250
     FM301900 15008KT P6SM SCT250=

USA.gov is the U.S. government's official web portal to all federal, state and local government web resources and services.